createdAt,value
2019-01-20T00:01:29.593Z,1.78
2019-01-20T00:03:55.477Z,1.82
2019-01-20T00:06:21.397Z,1.81
2019-01-20T00:08:47.266Z,1.75
2019-01-20T00:11:16.680Z,1.65
2019-01-20T00:13:41.002Z,1.61
2019-01-20T00:16:07.002Z,1.58
2019-01-20T00:18:32.892Z,1.61
2019-01-20T00:20:58.817Z,1.58
2019-01-20T00:23:24.720Z,1.48
2019-01-20T00:25:50.628Z,1.51
2019-01-20T00:28:16.513Z,1.46
2019-01-20T00:30:42.424Z,1.43
2019-01-20T00:33:08.350Z,1.43
2019-01-20T00:35:34.227Z,1.40
2019-01-20T00:38:00.172Z,1.36
2019-01-20T00:40:26.086Z,1.27
2019-01-20T00:42:51.971Z,1.15
2019-01-20T00:45:17.912Z,1.20
2019-01-20T00:47:43.805Z,1.33
2019-01-20T00:50:11.395Z,1.24
2019-01-20T00:52:37.279Z,1.22
2019-01-20T00:55:06.318Z,1.16
2019-01-20T00:57:32.456Z,1.16
2019-01-20T00:59:58.346Z,1.12
2019-01-20T01:02:24.379Z,1.05
2019-01-20T01:04:50.289Z,1.08
2019-01-20T01:07:16.214Z,1.05
2019-01-20T01:09:42.095Z,0.98
2019-01-20T01:12:09.925Z,0.92
2019-01-20T01:14:35.797Z,0.91
2019-01-20T01:17:01.716Z,0.90
2019-01-20T01:19:27.590Z,0.90
2019-01-20T01:21:53.548Z,0.87
2019-01-20T01:24:19.454Z,0.78
2019-01-20T01:26:45.371Z,0.80
2019-01-20T01:29:11.353Z,0.90
2019-01-20T01:31:37.292Z,0.86
2019-01-20T01:34:03.201Z,0.83
2019-01-20T01:36:29.101Z,0.77
2019-01-20T01:38:54.968Z,0.85
2019-01-20T01:41:20.878Z,0.73
2019-01-20T01:43:46.786Z,0.73
2019-01-20T01:46:12.653Z,0.67
2019-01-20T01:48:38.549Z,0.66
2019-01-20T01:51:04.420Z,0.59
2019-01-20T01:53:30.336Z,0.64
2019-01-20T01:55:56.248Z,0.53
2019-01-20T01:58:22.204Z,0.62
2019-01-20T02:00:48.131Z,0.56
2019-01-20T02:03:14.038Z,0.54
2019-01-20T02:05:39.904Z,0.45
2019-01-20T02:08:05.806Z,0.48
2019-01-20T02:10:31.714Z,0.41
2019-01-20T02:12:57.583Z,0.47
2019-01-20T02:15:23.493Z,0.48
2019-01-20T02:17:49.360Z,0.46
2019-01-20T02:20:21.470Z,0.34
2019-01-20T02:22:47.344Z,0.38
2019-01-20T02:25:13.417Z,0.41
2019-01-20T02:27:39.319Z,0.42
2019-01-20T02:30:14.740Z,0.43
2019-01-20T02:32:40.671Z,0.44
2019-01-20T02:35:06.575Z,0.37
2019-01-20T02:37:32.482Z,0.32
2019-01-20T02:39:58.354Z,0.29
2019-01-20T02:42:24.387Z,0.30
2019-01-20T02:44:50.287Z,0.22
2019-01-20T02:47:16.154Z,0.26
2019-01-20T02:49:42.061Z,0.25
2019-01-20T02:52:07.959Z,0.27
2019-01-20T02:54:33.856Z,0.26
2019-01-20T02:56:59.790Z,0.27
2019-01-20T02:59:25.685Z,0.28
2019-01-20T03:01:51.851Z,0.16
2019-01-20T03:04:17.762Z,0.16
2019-01-20T03:06:43.631Z,0.16
2019-01-20T03:09:09.851Z,0.13
2019-01-20T03:11:35.741Z,0.16
2019-01-20T03:14:01.716Z,0.17
2019-01-20T03:16:27.608Z,0.18
2019-01-20T03:18:54.788Z,0.14
2019-01-20T03:21:20.807Z,0.13
2019-01-20T03:23:46.703Z,0.16
2019-01-20T03:26:12.595Z,0.11
2019-01-20T03:28:38.470Z,0.02
2019-01-20T03:31:04.388Z,0.02
2019-01-20T03:33:31.110Z,-0.04
2019-01-20T03:35:56.974Z,-0.08
2019-01-20T03:38:22.891Z,-0.06
2019-01-20T03:40:48.806Z,-0.04
2019-01-20T03:43:14.724Z,-0.08
2019-01-20T03:45:40.597Z,-0.21
2019-01-20T03:48:06.614Z,-0.12
2019-01-20T03:50:32.480Z,-0.08
2019-01-20T03:52:58.379Z,-0.11
2019-01-20T03:55:24.290Z,-0.07
2019-01-20T03:57:50.158Z,-0.18
2019-01-20T04:00:21.223Z,-0.18
2019-01-20T04:02:49.097Z,-0.28
2019-01-20T04:05:15.045Z,-0.17
2019-01-20T04:07:40.925Z,-0.21
2019-01-20T04:10:14.633Z,-0.18
2019-01-20T04:12:40.546Z,-0.20
2019-01-20T04:15:07.338Z,-0.21
2019-01-20T04:17:33.235Z,-0.16
2019-01-20T04:19:59.111Z,-0.18
2019-01-20T04:22:25.015Z,-0.15
2019-01-20T04:24:50.920Z,-0.08
2019-01-20T04:27:16.829Z,-0.21
2019-01-20T04:29:42.695Z,-0.16
2019-01-20T04:32:08.715Z,-0.21
2019-01-20T04:34:34.599Z,-0.31
2019-01-20T04:37:00.477Z,-0.40
2019-01-20T04:39:26.395Z,-0.37
2019-01-20T04:41:52.264Z,-0.46
2019-01-20T04:44:18.163Z,-0.51
2019-01-20T04:46:44.032Z,-0.43
2019-01-20T04:49:09.925Z,-0.47
2019-01-20T04:51:35.807Z,-0.45
2019-01-20T04:54:02.017Z,-0.41
2019-01-20T04:56:27.927Z,-0.54
2019-01-20T04:58:53.812Z,-0.54
2019-01-20T05:01:19.719Z,-0.48
2019-01-20T05:03:45.637Z,-0.48
2019-01-20T05:06:11.536Z,-0.58
2019-01-20T05:08:37.416Z,-0.57
2019-01-20T05:11:03.326Z,-0.51
2019-01-20T05:13:29.203Z,-0.50
2019-01-20T05:15:55.054Z,-0.85
2019-01-20T05:18:20.960Z,-0.62
2019-01-20T05:20:46.834Z,-0.60
2019-01-20T05:23:12.741Z,-0.68
2019-01-20T05:25:38.638Z,-0.66
2019-01-20T05:28:04.549Z,-0.68
2019-01-20T05:30:30.432Z,-0.73
2019-01-20T05:32:56.344Z,-0.72
2019-01-20T05:35:22.244Z,-0.72
2019-01-20T05:37:48.128Z,-0.87
2019-01-20T05:40:17.404Z,-0.87
2019-01-20T05:42:46.376Z,-0.84
2019-01-20T05:45:13.830Z,-0.90
2019-01-20T05:47:39.687Z,-0.88
2019-01-20T05:50:08.601Z,-0.81
2019-01-20T05:52:34.463Z,-0.81
2019-01-20T05:55:00.363Z,-0.82
2019-01-20T05:57:26.279Z,-0.84
2019-01-20T05:59:52.233Z,-0.94
2019-01-20T06:02:18.109Z,-0.94
2019-01-20T06:04:44.031Z,-0.88
2019-01-20T06:07:09.913Z,-0.93
2019-01-20T06:09:35.790Z,-1.02
2019-01-20T06:12:01.705Z,-1.02
2019-01-20T06:14:27.587Z,-0.99
2019-01-20T06:16:53.512Z,-1.08
2019-01-20T06:19:19.396Z,-1.14
2019-01-20T06:21:45.296Z,-1.13
2019-01-20T06:24:11.169Z,-1.19
2019-01-20T06:26:37.096Z,-1.16
2019-01-20T06:29:02.959Z,-1.22
2019-01-20T06:31:28.870Z,-1.17
2019-01-20T06:33:54.823Z,-1.22
2019-01-20T06:36:20.686Z,-1.25
2019-01-20T06:38:46.594Z,-1.37
2019-01-20T06:41:12.477Z,-1.35
2019-01-20T06:43:38.412Z,-1.41
2019-01-20T06:46:04.283Z,-1.37
2019-01-20T06:48:30.182Z,-1.37
2019-01-20T06:50:56.056Z,-1.34
2019-01-20T06:53:21.988Z,-1.36
2019-01-20T06:55:47.859Z,-1.33
2019-01-20T06:58:13.797Z,-1.37
2019-01-20T07:00:39.701Z,-1.41
2019-01-20T07:03:05.563Z,-1.43
2019-01-20T07:05:31.484Z,-1.41
2019-01-20T07:07:57.361Z,-1.48
2019-01-20T07:10:23.265Z,-1.46
2019-01-20T07:12:49.165Z,-1.56
2019-01-20T07:15:17.253Z,-1.54
2019-01-20T07:17:43.169Z,-1.61
2019-01-20T07:20:10.681Z,-1.54
2019-01-20T07:22:36.661Z,-1.52
2019-01-20T07:25:04.601Z,-1.45
2019-01-20T07:27:30.479Z,-1.56
2019-01-20T07:29:56.429Z,-1.39
2019-01-20T07:32:22.333Z,-1.29
2019-01-20T07:34:48.233Z,-1.32
2019-01-20T07:37:14.119Z,-1.32
2019-01-20T07:39:39.992Z,-1.34
2019-01-20T07:42:05.896Z,-1.22
2019-01-20T07:44:31.798Z,-1.14
2019-01-20T07:46:57.715Z,-1.09
2019-01-20T07:49:23.586Z,-1.12
2019-01-20T07:51:49.506Z,-1.06
2019-01-20T07:54:15.376Z,-1.11
2019-01-20T07:56:41.301Z,-1.21
2019-01-20T07:59:07.274Z,-1.24
2019-01-20T08:01:33.289Z,-1.13
2019-01-20T08:03:59.219Z,-1.04
2019-01-20T08:06:25.170Z,-1.03
2019-01-20T08:08:51.056Z,-0.96
2019-01-20T08:11:17.061Z,-0.82
2019-01-20T08:13:42.950Z,-0.86
2019-01-20T08:16:08.850Z,-0.83
2019-01-20T08:18:34.806Z,-0.76
2019-01-20T08:21:00.732Z,-0.65
2019-01-20T08:23:26.733Z,-0.63
2019-01-20T08:25:52.693Z,-0.50
2019-01-20T08:28:18.604Z,-0.39
2019-01-20T08:30:44.476Z,-0.40
2019-01-20T08:33:10.415Z,-0.28
2019-01-20T08:35:36.275Z,-0.15
2019-01-20T08:38:02.200Z,-0.12
2019-01-20T08:40:28.230Z,-0.10
2019-01-20T08:42:54.097Z,-0.10
2019-01-20T08:45:35.655Z,0.02
2019-01-20T08:48:11.117Z,0.06
2019-01-20T08:50:37.025Z,0.09
2019-01-20T08:53:02.899Z,0.10
2019-01-20T08:55:28.811Z,0.18
2019-01-20T08:57:54.721Z,0.20
2019-01-20T09:00:20.655Z,0.14
2019-01-20T09:02:46.507Z,0.30
2019-01-20T09:05:12.902Z,0.37
2019-01-20T09:07:38.798Z,0.33
2019-01-20T09:10:24.725Z,0.48
2019-01-20T09:12:50.932Z,0.50
2019-01-20T09:15:16.809Z,0.69
2019-01-20T09:17:42.854Z,0.75
2019-01-20T09:20:11.478Z,0.87
2019-01-20T09:22:37.409Z,0.56
2019-01-20T09:25:05.019Z,0.45
2019-01-20T09:27:30.962Z,0.29
2019-01-20T09:29:56.861Z,0.47
2019-01-20T09:32:22.791Z,0.65
2019-01-20T09:34:48.745Z,0.83
2019-01-20T09:37:14.687Z,0.92
2019-01-20T09:39:42.490Z,1.11
2019-01-20T09:42:08.398Z,1.21
2019-01-20T09:44:34.269Z,1.24
2019-01-20T09:47:00.182Z,1.26
2019-01-20T09:49:26.067Z,1.34
2019-01-20T09:51:52.089Z,1.37
2019-01-20T09:54:17.984Z,1.46
2019-01-20T09:56:44.015Z,1.43
2019-01-20T09:59:09.940Z,1.43
2019-01-20T10:01:35.870Z,1.61
2019-01-20T10:04:01.819Z,0.99
2019-01-20T10:06:27.695Z,0.99
2019-01-20T10:08:53.609Z,1.29
2019-01-20T10:11:19.537Z,1.54
2019-01-20T10:13:45.481Z,1.89
2019-01-20T10:16:11.340Z,1.99
2019-01-20T10:18:37.253Z,2.03
2019-01-20T10:21:03.153Z,2.07
2019-01-20T10:23:29.037Z,2.07
2019-01-20T10:25:55.385Z,2.11
2019-01-20T10:28:21.363Z,2.18
2019-01-20T10:30:47.281Z,2.19
2019-01-20T10:33:13.151Z,2.24
2019-01-20T10:35:41.073Z,2.33
2019-01-20T10:38:08.659Z,2.39
2019-01-20T10:40:34.662Z,2.19
2019-01-20T10:43:00.542Z,2.23
2019-01-20T10:45:26.460Z,2.12
2019-01-20T10:47:52.344Z,1.78
2019-01-20T10:50:18.272Z,1.92
2019-01-20T10:52:44.583Z,1.96
2019-01-20T10:55:10.475Z,1.65
2019-01-20T10:57:36.372Z,2.04
2019-01-20T11:00:18.013Z,2.06
2019-01-20T11:02:43.939Z,2.05
2019-01-20T11:05:09.938Z,2.15
2019-01-20T11:07:35.855Z,2.06
2019-01-20T11:10:05.589Z,2.53
2019-01-20T11:12:31.543Z,2.39
2019-01-20T11:14:57.421Z,2.64
2019-01-20T11:17:23.372Z,2.69
2019-01-20T11:19:49.236Z,2.60
2019-01-20T11:22:15.167Z,2.87
2019-01-20T11:24:41.084Z,2.59
2019-01-20T11:27:07.032Z,2.81
2019-01-20T11:29:32.909Z,2.72
2019-01-20T11:31:58.828Z,2.10
2019-01-20T11:34:24.824Z,2.80
2019-01-20T11:36:50.697Z,2.83
2019-01-20T11:39:16.590Z,3.10
2019-01-20T11:41:42.517Z,3.11
2019-01-20T11:44:08.407Z,3.20
2019-01-20T11:46:34.330Z,3.37
2019-01-20T11:49:00.241Z,3.44
2019-01-20T11:51:26.173Z,3.31
2019-01-20T11:53:52.076Z,3.57
2019-01-20T11:56:18.013Z,3.49
2019-01-20T11:58:43.890Z,3.66
2019-01-20T12:01:09.823Z,3.73
2019-01-20T12:03:35.811Z,3.67
2019-01-20T12:06:01.745Z,3.63
2019-01-20T12:08:30.749Z,3.72
2019-01-20T12:10:55.455Z,3.82
2019-01-20T12:13:23.327Z,3.80
2019-01-20T12:15:49.313Z,3.81
2019-01-20T12:18:15.197Z,3.97
2019-01-20T12:20:41.127Z,3.92
2019-01-20T12:23:07.022Z,3.94
2019-01-20T12:25:32.933Z,3.89
2019-01-20T12:27:58.844Z,4.03
2019-01-20T12:30:33.967Z,4.01
2019-01-20T12:32:59.856Z,3.99
2019-01-20T12:35:25.780Z,4.11
2019-01-20T12:37:51.821Z,4.33
2019-01-20T12:40:21.101Z,4.43
2019-01-20T12:42:47.049Z,4.09
2019-01-20T12:45:14.982Z,3.93
2019-01-20T12:47:41.086Z,4.23
2019-01-20T12:50:10.664Z,4.26
2019-01-20T12:52:36.569Z,3.80
2019-01-20T12:55:03.949Z,4.18
2019-01-20T12:57:29.871Z,3.82
2019-01-20T12:59:55.786Z,4.33
2019-01-20T13:02:21.723Z,4.36
2019-01-20T13:04:47.829Z,4.03
2019-01-20T13:07:13.717Z,3.89
2019-01-20T13:09:39.657Z,4.22
2019-01-20T13:12:05.601Z,3.76
2019-01-20T13:14:31.555Z,3.76
2019-01-20T13:16:57.446Z,3.87
2019-01-20T13:19:23.449Z,4.08
2019-01-20T13:21:49.327Z,3.92
2019-01-20T13:24:15.252Z,3.55
2019-01-20T13:26:41.179Z,3.85
2019-01-20T13:29:07.131Z,3.84
2019-01-20T13:31:33.059Z,4.03
2019-01-20T13:33:58.967Z,4.47
2019-01-20T13:36:24.850Z,4.17
2019-01-20T13:38:53.287Z,3.82
2019-01-20T13:41:21.331Z,4.14
2019-01-20T13:43:47.340Z,3.76
2019-01-20T13:46:13.234Z,3.72
2019-01-20T13:48:39.145Z,3.93
2019-01-20T13:51:05.020Z,4.07
2019-01-20T13:53:30.900Z,3.81
2019-01-20T13:56:01.220Z,3.77
2019-01-20T13:58:24.622Z,3.82
2019-01-20T14:00:50.623Z,4.02
2019-01-20T14:03:16.491Z,3.75
2019-01-20T14:05:42.435Z,3.87
2019-01-20T14:08:08.340Z,3.87
2019-01-20T14:10:34.248Z,4.14
2019-01-20T14:13:00.160Z,3.87
2019-01-20T14:15:26.084Z,4.11
2019-01-20T14:17:51.960Z,3.72
2019-01-20T14:20:25.108Z,3.87
2019-01-20T14:22:51.114Z,4.21
2019-01-20T14:25:26.342Z,3.80
2019-01-20T14:27:52.304Z,3.65
2019-01-20T14:30:23.918Z,3.50
2019-01-20T14:32:49.851Z,3.62
2019-01-20T14:35:16.696Z,3.55
2019-01-20T14:37:42.597Z,3.55
2019-01-20T14:40:12.301Z,3.45
2019-01-20T14:42:38.227Z,3.40
2019-01-20T14:45:06.941Z,3.44
2019-01-20T14:47:32.857Z,3.42
2019-01-20T14:49:58.844Z,3.53
2019-01-20T14:52:24.758Z,3.65
2019-01-20T14:54:50.671Z,3.52
2019-01-20T14:57:16.666Z,3.63
2019-01-20T14:59:42.645Z,3.56
2019-01-20T15:02:08.539Z,3.34
2019-01-20T15:04:34.521Z,3.36
2019-01-20T15:07:00.452Z,3.67
2019-01-20T15:09:26.616Z,3.52
2019-01-20T15:11:52.628Z,3.37
2019-01-20T15:14:18.589Z,3.11
2019-01-20T15:16:44.491Z,3.09
2019-01-20T15:19:10.493Z,3.29
2019-01-20T15:21:36.421Z,3.38
2019-01-20T15:24:02.443Z,3.60
2019-01-20T15:26:28.545Z,3.69
2019-01-20T15:28:54.455Z,3.78
2019-01-20T15:31:20.354Z,3.69
2019-01-20T15:33:46.237Z,3.67
2019-01-20T15:36:12.151Z,3.28
2019-01-20T15:38:38.032Z,3.32
2019-01-20T15:41:03.996Z,2.80
2019-01-20T15:43:30.270Z,3.34
2019-01-20T15:45:56.250Z,3.20
2019-01-20T15:48:22.171Z,3.17
2019-01-20T15:50:48.040Z,2.84
2019-01-20T15:53:13.968Z,2.83
2019-01-20T15:55:39.870Z,2.87
2019-01-20T15:58:05.805Z,2.95
2019-01-20T16:00:31.743Z,2.83
2019-01-20T16:02:57.659Z,2.83
2019-01-20T16:05:24.366Z,2.69
2019-01-20T16:07:50.304Z,2.66
2019-01-20T16:10:16.347Z,2.57
2019-01-20T16:12:42.475Z,2.83
2019-01-20T16:15:11.499Z,2.98
2019-01-20T16:17:37.419Z,2.93
2019-01-20T16:20:07.147Z,2.96
2019-01-20T16:22:33.072Z,2.95
2019-01-20T16:24:58.987Z,2.87
2019-01-20T16:27:25.043Z,2.85
2019-01-20T16:29:51.069Z,2.85
2019-01-20T16:32:16.965Z,2.80
2019-01-20T16:34:42.945Z,2.72
2019-01-20T16:37:08.841Z,2.67
2019-01-20T16:39:34.782Z,2.70
2019-01-20T16:42:00.703Z,2.62
2019-01-20T16:44:26.746Z,2.56
2019-01-20T16:46:52.654Z,2.54
2019-01-20T16:49:18.596Z,2.50
2019-01-20T16:51:44.500Z,2.39
2019-01-20T16:54:10.417Z,2.34
2019-01-20T16:56:36.375Z,2.23
2019-01-20T16:59:02.252Z,2.07
2019-01-20T17:01:28.195Z,2.11
2019-01-20T17:03:54.078Z,2.08
2019-01-20T17:06:20.325Z,2.01
2019-01-20T17:08:46.196Z,2.01
2019-01-20T17:11:12.074Z,1.95
2019-01-20T17:13:38.092Z,1.98
2019-01-20T17:16:03.985Z,1.90
2019-01-20T17:18:29.925Z,1.86
2019-01-20T17:20:55.805Z,1.88
2019-01-20T17:23:21.752Z,1.82
2019-01-20T17:25:47.626Z,1.83
2019-01-20T17:28:13.588Z,1.92
2019-01-20T17:30:39.588Z,1.98
2019-01-20T17:33:07.605Z,2.02
2019-01-20T17:35:33.657Z,2.04
2019-01-20T17:37:59.607Z,2.10
2019-01-20T17:40:28.323Z,2.02
2019-01-20T17:42:54.217Z,1.84
2019-01-20T17:45:26.230Z,1.80
2019-01-20T17:47:52.153Z,1.81
2019-01-20T17:50:34.009Z,1.68
2019-01-20T17:52:59.895Z,1.64
2019-01-20T17:55:25.780Z,1.61
2019-01-20T17:57:51.728Z,1.49
2019-01-20T18:00:25.618Z,1.49
2019-01-20T18:02:51.546Z,1.40
2019-01-20T18:05:20.449Z,1.30
2019-01-20T18:07:46.330Z,1.27
2019-01-20T18:10:13.382Z,1.23
2019-01-20T18:12:39.264Z,1.22
2019-01-20T18:15:08.496Z,1.19
2019-01-20T18:17:34.418Z,1.16
2019-01-20T18:20:00.314Z,1.17
2019-01-20T18:22:26.321Z,1.15
2019-01-20T18:24:52.222Z,1.11
2019-01-20T18:27:18.241Z,1.10
2019-01-20T18:29:44.110Z,1.07
2019-01-20T18:32:10.045Z,1.03
2019-01-20T18:34:35.924Z,0.98
2019-01-20T18:37:01.890Z,0.96
2019-01-20T18:39:27.794Z,0.92
2019-01-20T18:41:53.715Z,0.93
2019-01-20T18:44:21.568Z,0.83
2019-01-20T18:46:47.471Z,0.89
2019-01-20T18:49:13.496Z,0.80
2019-01-20T18:51:39.448Z,0.73
2019-01-20T18:54:05.409Z,0.76
2019-01-20T18:56:31.321Z,0.73
2019-01-20T18:58:57.321Z,0.65
2019-01-20T19:01:23.187Z,0.62
2019-01-20T19:03:49.121Z,0.58
2019-01-20T19:06:14.992Z,0.54
2019-01-20T19:08:40.923Z,0.50
2019-01-20T19:11:06.846Z,0.54
2019-01-20T19:13:32.766Z,0.47
2019-01-20T19:15:58.795Z,0.46
2019-01-20T19:18:24.679Z,0.30
2019-01-20T19:20:50.601Z,0.36
2019-01-20T19:23:16.490Z,0.25
2019-01-20T19:25:42.392Z,0.30
2019-01-20T19:28:08.302Z,0.19
2019-01-20T19:30:34.359Z,0.18
2019-01-20T19:33:00.327Z,0.22
2019-01-20T19:35:26.291Z,0.24
2019-01-20T19:37:52.280Z,0.17
2019-01-20T19:40:18.222Z,0.09
2019-01-20T19:42:44.113Z,0.08
2019-01-20T19:45:15.253Z,0.06
2019-01-20T19:47:41.198Z,0.10
2019-01-20T19:50:09.814Z,0.05
2019-01-20T19:52:35.837Z,0.02
2019-01-20T19:55:01.741Z,-0.10
2019-01-20T19:57:27.684Z,-0.05
2019-01-20T19:59:53.577Z,-0.03
2019-01-20T20:02:19.482Z,-0.06
2019-01-20T20:04:45.495Z,-0.07
2019-01-20T20:07:11.438Z,-0.11
2019-01-20T20:09:37.330Z,-0.11
2019-01-20T20:12:03.215Z,-0.13
2019-01-20T20:14:29.151Z,-0.18
2019-01-20T20:16:55.057Z,-0.22
2019-01-20T20:19:20.990Z,-0.22
2019-01-20T20:21:46.913Z,-0.24
2019-01-20T20:24:12.857Z,-0.30
2019-01-20T20:26:38.769Z,-0.30
2019-01-20T20:29:04.731Z,-0.32
2019-01-20T20:31:30.818Z,-0.37
2019-01-20T20:33:56.731Z,-0.37
2019-01-20T20:36:34.874Z,-0.44
2019-01-20T20:39:01.520Z,-0.41
2019-01-20T20:41:27.964Z,-0.43
2019-01-20T20:43:54.325Z,-0.46
2019-01-20T20:46:20.829Z,-0.55
2019-01-20T20:48:47.260Z,-0.47
2019-01-20T20:51:13.811Z,-0.52
2019-01-20T20:53:40.239Z,-0.56
2019-01-20T20:56:07.184Z,-0.59
2019-01-20T20:58:33.735Z,-0.54
2019-01-20T21:01:00.160Z,-0.58
2019-01-20T21:03:26.538Z,-0.70
2019-01-20T21:05:53.050Z,-0.80
2019-01-20T21:08:19.490Z,-0.78
2019-01-20T21:10:45.943Z,-0.81
2019-01-20T21:13:12.380Z,-0.79
2019-01-20T21:15:40.481Z,-0.84
2019-01-20T21:18:06.753Z,-0.84
2019-01-20T21:20:32.871Z,-0.84
2019-01-20T21:22:59.055Z,-0.86
2019-01-20T21:25:25.120Z,-0.96
2019-01-20T21:27:52.924Z,-0.96
2019-01-20T21:30:26.694Z,-0.96
2019-01-20T21:32:54.208Z,-0.95
2019-01-20T21:35:20.655Z,-0.95
2019-01-20T21:37:48.866Z,-0.96
2019-01-20T21:40:16.879Z,-1.04
2019-01-20T21:42:42.894Z,-1.04
2019-01-20T21:45:10.655Z,-1.05
2019-01-20T21:47:36.973Z,-1.08
2019-01-20T21:50:09.261Z,-1.08
2019-01-20T21:52:35.317Z,-0.99
2019-01-20T21:55:01.679Z,-1.03
2019-01-20T21:57:27.566Z,-1.00
2019-01-20T21:59:53.642Z,-0.96
2019-01-20T22:02:19.646Z,-0.95
2019-01-20T22:04:50.106Z,-0.96
2019-01-20T22:07:19.259Z,-0.98
2019-01-20T22:09:45.653Z,-0.92
2019-01-20T22:12:12.321Z,-1.07
2019-01-20T22:14:38.319Z,-1.13
2019-01-20T22:17:04.367Z,-1.18
2019-01-20T22:19:30.429Z,-1.16
2019-01-20T22:21:56.845Z,-1.14
2019-01-20T22:24:24.595Z,-1.20
2019-01-20T22:26:50.795Z,-1.19
2019-01-20T22:29:16.859Z,-1.29
2019-01-20T22:31:43.303Z,-1.28
2019-01-20T22:34:09.961Z,-1.36
2019-01-20T22:36:36.063Z,-1.32
2019-01-20T22:39:02.870Z,-1.25
2019-01-20T22:41:29.134Z,-1.10
2019-01-20T22:43:55.393Z,-1.03
2019-01-20T22:46:21.922Z,-1.06
2019-01-20T22:48:48.269Z,-1.03
2019-01-20T22:51:14.314Z,-1.08
2019-01-20T22:53:40.808Z,-1.07
2019-01-20T22:56:07.274Z,-1.37
2019-01-20T22:58:33.708Z,-1.20
2019-01-20T23:01:02.186Z,-1.17
2019-01-20T23:03:28.639Z,-1.18
2019-01-20T23:05:55.076Z,-1.17
2019-01-20T23:08:21.653Z,-1.18
2019-01-20T23:10:47.764Z,-1.23
2019-01-20T23:13:14.500Z,-1.30
2019-01-20T23:15:41.243Z,-1.36
2019-01-20T23:18:07.682Z,-1.40
2019-01-20T23:20:35.964Z,-1.33
2019-01-20T23:23:02.505Z,-1.40
2019-01-20T23:25:28.943Z,-1.42
2019-01-20T23:27:57.734Z,-1.48
2019-01-20T23:30:24.113Z,-1.51
2019-01-20T23:32:50.007Z,-1.53
2019-01-20T23:35:15.889Z,-1.57
2019-01-20T23:37:41.872Z,-1.58
2019-01-20T23:40:14.186Z,-1.62
2019-01-20T23:42:40.067Z,-1.63
2019-01-20T23:45:10.684Z,-1.74
2019-01-20T23:47:36.588Z,-1.64
2019-01-20T23:50:05.364Z,-1.66
2019-01-20T23:52:31.265Z,-1.66
2019-01-20T23:54:57.186Z,-1.70
2019-01-20T23:57:23.059Z,-1.75
2019-01-20T23:59:48.984Z,-1.77
